^^
Meteo Knjazevac Station Historical Data
Daily Summary for December 12, 2021 Units:  Metric    English   Both
Daily Weekly Monthly Yearly Custom
  High: Low: Average:
Temperature: 4.7 °C 1.3 °C 2 °C
Dew Point: 4.6 °C -0.1 °C 1.4 °C
Humidity: 99% 90% 96%
Wind Speed: 22.5km/h 0km/h 10.5km/h
Wind Gust: 33.8km/h - -
Wind- - SW
Pressure: 1017.2 hPa 1005 hPa -
Precipitation: 2.54 mm    
Historical Graphs
 
 
Tabular Data for December 12, 2021
Time Temperature Dew Point Pressure Wind Wind Speed Wind Gust Humidity Rainfall Rate (Hourly) solar Conditions
00:00 4.6 °C 4.4 °C 1005 hPa SE 4.8 km/h 8 km/h 99% 0.51 mm 0 W/m2
00:10 4.6 °C 4.4 °C 1005 hPa ESE 4.8 km/h 6.4 km/h 99% 0.51 mm 0 W/m2
00:20 4.7 °C 4.6 °C 1005 hPa ESE 3.2 km/h 4.8 km/h 99% 0.25 mm 0 W/m2
00:30 4.7 °C 4.6 °C 1005 hPa SSE 4.8 km/h 6.4 km/h 99% 0.25 mm 0 W/m2
00:40 4.6 °C 4.4 °C 1005 hPa SSW 8 km/h 12.9 km/h 99% 0.25 mm 0 W/m2
00:50 4.4 °C 4.3 °C 1005.3 hPa SW 14.5 km/h 20.9 km/h 99% 0 mm 0 W/m2
01:00 4.1 °C 3.9 °C 1005 hPa SW 11.3 km/h 22.5 km/h 99% 0 mm 0 W/m2
01:10 3.8 °C 3.7 °C 1005 hPa SW 9.7 km/h 19.3 km/h 99% 0.25 mm 0 W/m2
01:20 3.6 °C 3.4 °C 1005.3 hPa SSW 9.7 km/h 19.3 km/h 99% 0.25 mm 0 W/m2
01:30 3.5 °C 3.3 °C 1005.3 hPa SSW 9.7 km/h 12.9 km/h 99% 0 mm 0 W/m2
01:40 3.4 °C 3.2 °C 1005.6 hPa SSW 8 km/h 16.1 km/h 99% 0 mm 0 W/m2
01:50 3.2 °C 3.1 °C 1005.6 hPa SSW 11.3 km/h 17.7 km/h 99% 0 mm 0 W/m2
02:00 3.1 °C 2.9 °C 1006 hPa SSW 8 km/h 19.3 km/h 99% 0 mm 0 W/m2
02:10 3 °C 2.8 °C 1006 hPa SW 9.7 km/h 19.3 km/h 99% 0.25 mm 0 W/m2
02:20 2.9 °C 2.8 °C 1006.3 hPa SSW 11.3 km/h 20.9 km/h 99% 0 mm 0 W/m2
02:30 2.8 °C 2.7 °C 1006.7 hPa SSW 12.9 km/h 22.5 km/h 99% 0 mm 0 W/m2
02:40 2.6 °C 2.4 °C 1006.7 hPa SSW 14.5 km/h 22.5 km/h 99% 0 mm 0 W/m2
02:50 2.4 °C 2.3 °C 1006.7 hPa SSW 11.3 km/h 22.5 km/h 99% 0 mm 0 W/m2
03:00 2.2 °C 2.1 °C 1006.7 hPa SW 12.9 km/h 22.5 km/h 99% 0 mm 0 W/m2
03:10 2.1 °C 1.9 °C 1006.3 hPa SW 14.5 km/h 22.5 km/h 99% 0 mm 0 W/m2
03:20 1.9 °C 1.8 °C 1006.7 hPa SSW 12.9 km/h 20.9 km/h 99% 0 mm 0 W/m2
03:30 2 °C 1.8 °C 1006.3 hPa SW 14.5 km/h 22.5 km/h 99% 0 mm 0 W/m2
03:40 2 °C 1.8 °C 1006.3 hPa SSW 12.9 km/h 22.5 km/h 99% 0 mm 0 W/m2
03:50 1.9 °C 1.8 °C 1006.7 hPa SSW 16.1 km/h 22.5 km/h 99% 0 mm 0 W/m2
04:00 1.9 °C 1.8 °C 1006.7 hPa SSW 16.1 km/h 22.5 km/h 99% 0 mm 0 W/m2
04:10 1.8 °C 1.7 °C 1007 hPa SW 14.5 km/h 33.8 km/h 99% 0 mm 0 W/m2
04:20 1.8 °C 1.6 °C 1007 hPa SW 22.5 km/h 32.2 km/h 99% 0 mm 0 W/m2
04:30 1.7 °C 1.6 °C 1007 hPa SW 16.1 km/h 33.8 km/h 99% 0 mm 0 W/m2
04:40 1.7 °C 1.6 °C 1007.3 hPa SW 22.5 km/h 32.2 km/h 99% 0.25 mm 0 W/m2
04:50 1.6 °C 1.4 °C 1007.3 hPa SW 20.9 km/h 33.8 km/h 99% 0 mm 0 W/m2
05:00 1.6 °C 1.3 °C 1007.7 hPa SW 16.1 km/h 25.7 km/h 98% 0 mm 0 W/m2
05:10 1.5 °C 1.3 °C 1008 hPa SW 14.5 km/h 25.7 km/h 99% 0 mm 0 W/m2
05:20 1.5 °C 1.3 °C 1008.4 hPa SW 19.3 km/h 27.4 km/h 99% 0 mm 0 W/m2
05:30 1.5 °C 1.2 °C 1008.4 hPa SW 22.5 km/h 29 km/h 98% 0 mm 0 W/m2
05:40 1.5 °C 1.2 °C 1008.4 hPa SW 14.5 km/h 33.8 km/h 98% 0 mm 0 W/m2
05:50 1.5 °C 1.2 °C 1008.7 hPa SW 14.5 km/h 27.4 km/h 98% 0 mm 0 W/m2
06:00 1.5 °C 1.2 °C 1009 hPa SW 14.5 km/h 27.4 km/h 98% 0 mm 0 W/m2
06:10 1.5 °C 1.2 °C 1009 hPa SW 14.5 km/h 30.6 km/h 98% 0 mm 0 W/m2
06:20 1.5 °C 1.2 °C 1009 hPa SW 12.9 km/h 32.2 km/h 98% 0 mm 0 W/m2
06:30 1.5 °C 0.9 °C 1009 hPa SW 19.3 km/h 29 km/h 96% 0 mm 0 W/m2
06:40 1.5 °C 0.9 °C 1009.4 hPa SW 19.3 km/h 32.2 km/h 96% 0 mm 0 W/m2
06:50 1.5 °C 0.9 °C 1009.4 hPa SW 19.3 km/h 32.2 km/h 96% 0 mm 0 W/m2
07:00 1.5 °C 0.9 °C 1009.7 hPa SW 19.3 km/h 33.8 km/h 96% 0 mm 4 W/m2
07:10 1.4 °C 0.8 °C 1010 hPa SW 14.5 km/h 29 km/h 96% 0 mm 5 W/m2
07:20 1.4 °C 0.8 °C 1010 hPa SW 16.1 km/h 27.4 km/h 96% 0 mm 14 W/m2
07:30 1.4 °C 0.8 °C 1010.4 hPa SW 9.7 km/h 27.4 km/h 96% 0 mm 18 W/m2
07:40 1.4 °C 0.8 °C 1010.7 hPa SSW 14.5 km/h 24.1 km/h 96% 0 mm 23 W/m2
07:50 1.5 °C 0.9 °C 1011.1 hPa SW 11.3 km/h 32.2 km/h 96% 0 mm 30 W/m2
08:00 1.5 °C 0.9 °C 1011.1 hPa SW 16.1 km/h 25.7 km/h 96% 0 mm 37 W/m2
08:10 1.5 °C 0.9 °C 1011.4 hPa SW 16.1 km/h 32.2 km/h 96% 0 mm 68 W/m2
08:20 1.5 °C 0.9 °C 1011.4 hPa SW 12.9 km/h 27.4 km/h 96% 0 mm 84 W/m2
08:30 1.6 °C 1 °C 1011.4 hPa SW 12.9 km/h 24.1 km/h 96% 0 mm 89 W/m2
08:40 1.6 °C 1.1 °C 1011.7 hPa SW 12.9 km/h 24.1 km/h 96% 0 mm 103 W/m2
08:50 1.8 °C 1.2 °C 1012.1 hPa SW 14.5 km/h 27.4 km/h 96% 0 mm 122 W/m2
09:00 1.8 °C 1.1 °C 1012.1 hPa SW 11.3 km/h 24.1 km/h 95% 0 mm 89 W/m2
09:10 1.8 °C 1.1 °C 1012.1 hPa SW 12.9 km/h 24.1 km/h 95% 0 mm 100 W/m2
09:20 1.9 °C 1.2 °C 1012.4 hPa SW 9.7 km/h 27.4 km/h 95% 0 mm 120 W/m2
09:30 1.9 °C 1.3 °C 1012.4 hPa SW 9.7 km/h 22.5 km/h 96% 0 mm 162 W/m2
09:40 2.1 °C 1.3 °C 1012.8 hPa SW 11.3 km/h 27.4 km/h 95% 0 mm 161 W/m2
09:50 2.1 °C 1.4 °C 1012.8 hPa SSW 9.7 km/h 20.9 km/h 95% 0 mm 100 W/m2
10:00 2.1 °C 1.3 °C 1012.8 hPa SW 12.9 km/h 22.5 km/h 95% 0 mm 90 W/m2
10:10 2.1 °C 1.3 °C 1012.8 hPa SW 11.3 km/h 19.3 km/h 95% 0 mm 102 W/m2
10:20 2 °C 1.3 °C 1012.8 hPa SW 12.9 km/h 25.7 km/h 95% 0 mm 61 W/m2
10:30 1.9 °C 1.2 °C 1013.1 hPa SW 11.3 km/h 20.9 km/h 95% 0 mm 60 W/m2
10:40 1.9 °C 1.2 °C 1013.1 hPa SW 11.3 km/h 20.9 km/h 95% 0 mm 57 W/m2
10:50 1.8 °C 1.1 °C 1013.1 hPa SW 14.5 km/h 29 km/h 95% 0 mm 52 W/m2
11:00 1.8 °C 1.1 °C 1013.1 hPa SW 14.5 km/h 24.1 km/h 95% 0 mm 89 W/m2
11:10 1.9 °C 1.2 °C 1013.4 hPa SW 14.5 km/h 22.5 km/h 95% 0 mm 68 W/m2
11:20 1.9 °C 1.2 °C 1013.4 hPa SW 12.9 km/h 22.5 km/h 95% 0 mm 76 W/m2
11:30 1.9 °C 1.2 °C 1013.4 hPa SW 12.9 km/h 20.9 km/h 95% 0 mm 71 W/m2
11:40 1.9 °C 1.2 °C 1013.8 hPa SW 12.9 km/h 20.9 km/h 95% 0 mm 33 W/m2
11:50 1.9 °C 1.2 °C 1013.8 hPa SW 9.7 km/h 20.9 km/h 95% 0 mm 39 W/m2
12:00 1.9 °C 1.2 °C 1013.8 hPa SW 8 km/h 17.7 km/h 95% 0 mm 48 W/m2
12:10 1.9 °C 1.2 °C 1014.1 hPa SW 8 km/h 14.5 km/h 95% 0 mm 45 W/m2
12:20 2 °C 1.1 °C 1014.1 hPa SW 8 km/h 19.3 km/h 94% 0 mm 40 W/m2
12:30 2 °C 1.1 °C 1014.1 hPa WSW 8 km/h 19.3 km/h 94% 0 mm 51 W/m2
12:40 2.1 °C 1.2 °C 1014.1 hPa WSW 12.9 km/h 17.7 km/h 94% 0 mm 49 W/m2
12:50 2.1 °C 1.2 °C 1014.1 hPa WSW 4.8 km/h 16.1 km/h 94% 0 mm 40 W/m2
13:00 2.1 °C 1.1 °C 1014.4 hPa WSW 3.2 km/h 12.9 km/h 93% 0 mm 40 W/m2
13:10 2.1 °C 1.1 °C 1014.4 hPa West 4.8 km/h 12.9 km/h 93% 0 mm 35 W/m2
13:20 2.1 °C 0.8 °C 1014.4 hPa West 9.7 km/h 16.1 km/h 91% 0 mm 34 W/m2
13:30 2 °C 0.7 °C 1014.4 hPa West 9.7 km/h 16.1 km/h 91% 0 mm 25 W/m2
13:40 2 °C 0.7 °C 1014.4 hPa West 8 km/h 14.5 km/h 91% 0 mm 16 W/m2
13:50 1.9 °C 0.6 °C 1014.8 hPa West 4.8 km/h 14.5 km/h 91% 0 mm 18 W/m2
14:00 1.9 °C 0.6 °C 1014.8 hPa WSW 4.8 km/h 14.5 km/h 91% 0 mm 15 W/m2
14:10 1.8 °C 0.6 °C 1015.1 hPa WSW 4.8 km/h 11.3 km/h 91% 0 mm 12 W/m2
14:20 1.8 °C 0.5 °C 1015.1 hPa WSW 4.8 km/h 8 km/h 91% 0 mm 8 W/m2
14:30 1.8 °C 0.8 °C 1015.1 hPa WSW 3.2 km/h 9.7 km/h 93% 0 mm 5 W/m2
14:40 1.8 °C 0.8 °C 1015.5 hPa WSW 4.8 km/h 9.7 km/h 93% 0 mm 5 W/m2
14:50 1.7 °C 0.7 °C 1015.5 hPa WSW 3.2 km/h 8 km/h 93% 0 mm 5 W/m2
15:00 1.7 °C 0.7 °C 1015.5 hPa WSW 4.8 km/h 8 km/h 93% 0 mm 4 W/m2
15:10 1.6 °C 0.6 °C 1015.5 hPa WSW 4.8 km/h 11.3 km/h 93% 0 mm 3 W/m2
15:20 1.6 °C 0.6 °C 1015.8 hPa SW 1.6 km/h 8 km/h 93% 0 mm 3 W/m2
15:30 1.6 °C 0.7 °C 1015.8 hPa SW 3.2 km/h 6.4 km/h 94% 0 mm 3 W/m2
15:40 1.6 °C 0.6 °C 1015.8 hPa SW 3.2 km/h 8 km/h 93% 0 mm 2 W/m2
15:50 1.5 °C 0.7 °C 1015.8 hPa Calm   4.8 km/h 94% 0 mm 1 W/m2
16:00 1.5 °C 0.7 °C 1015.8 hPa West 1.6 km/h 8 km/h 94% 0 mm 0 W/m2
16:10 1.5 °C 0.5 °C 1015.8 hPa West 3.2 km/h 9.7 km/h 93% 0 mm 0 W/m2
16:20 1.4 °C 0.6 °C 1016.1 hPa WSW 3.2 km/h 8 km/h 94% 0 mm 0 W/m2
16:30 1.4 °C 0.6 °C 1016.5 hPa West 3.2 km/h 8 km/h 94% 0 mm 0 W/m2
16:40 1.4 °C 0.6 °C 1016.5 hPa WSW 8 km/h 9.7 km/h 94% 0 mm 0 W/m2
16:50 1.4 °C 0.4 °C 1016.5 hPa West 9.7 km/h 17.7 km/h 93% 0 mm 0 W/m2
17:00 1.3 °C 0 °C 1016.5 hPa WSW 8 km/h 17.7 km/h 91% 0 mm 0 W/m2
17:10 1.4 °C -0.1 °C 1016.8 hPa WSW 9.7 km/h 20.9 km/h 90% 0 mm 0 W/m2
17:20 1.4 °C 0.1 °C 1016.8 hPa WSW 4.8 km/h 16.1 km/h 91% 0 mm 0 W/m2
17:30 1.3 °C 0 °C 1016.8 hPa WSW 4.8 km/h 14.5 km/h 91% 0 mm 0 W/m2
17:40 1.3 °C 0 °C 1016.8 hPa WSW 3.2 km/h 9.7 km/h 91% 0 mm 0 W/m2
17:50 1.3 °C 0 °C 1017.2 hPa SSW 3.2 km/h 8 km/h 91% 0 mm 0 W/m2
18:00 1.3 °C 0.3 °C 1016.8 hPa SW 3.2 km/h 8 km/h 93% 0 mm 0 W/m2
18:10 1.3 °C 0 °C 1017.2 hPa SW 3.2 km/h 8 km/h 91% 0 mm 0 W/m2
Knjazevac, Serbia
Compliments of Weather Underground - 2 mb